createdAt,value
2019-03-20T00:00:04.963Z,997.62
2019-03-20T00:01:04.855Z,997.62
2019-03-20T00:02:04.816Z,997.61
2019-03-20T00:03:04.770Z,997.60
2019-03-20T00:04:04.734Z,997.60
2019-03-20T00:05:04.687Z,997.60
2019-03-20T00:06:04.643Z,997.57
2019-03-20T00:07:04.599Z,997.60
2019-03-20T00:08:04.559Z,997.60
2019-03-20T00:09:04.513Z,997.58
2019-03-20T00:10:04.472Z,997.59
2019-03-20T00:11:04.429Z,997.60
2019-03-20T00:12:04.388Z,997.57
2019-03-20T00:13:04.340Z,997.56
2019-03-20T00:14:04.303Z,997.56
2019-03-20T00:15:04.260Z,997.59
2019-03-20T00:16:04.216Z,997.63
2019-03-20T00:17:04.217Z,997.64
2019-03-20T00:18:04.126Z,997.63
2019-03-20T00:20:36.175Z,997.63
2019-03-20T00:21:36.108Z,997.64
2019-03-20T00:22:36.067Z,997.66
2019-03-20T00:23:36.029Z,997.67
2019-03-20T00:24:35.980Z,997.66
2019-03-20T00:25:35.937Z,997.67
2019-03-20T00:26:35.893Z,997.64
2019-03-20T00:27:35.856Z,997.65
2019-03-20T00:28:35.807Z,997.65
2019-03-20T00:29:35.765Z,997.63
2019-03-20T00:30:35.723Z,997.64
2019-03-20T00:31:35.677Z,997.65
2019-03-20T00:32:35.635Z,997.68
2019-03-20T00:33:35.592Z,997.71
2019-03-20T00:34:35.549Z,997.64
2019-03-20T00:35:35.510Z,997.63
2019-03-20T00:36:35.466Z,997.63
2019-03-20T00:37:35.420Z,997.61
2019-03-20T00:38:35.377Z,997.62
2019-03-20T00:39:35.334Z,997.60
2019-03-20T00:40:35.291Z,997.62
2019-03-20T00:41:35.248Z,997.62
2019-03-20T00:42:35.563Z,997.60
2019-03-20T00:43:35.162Z,997.62
2019-03-20T00:44:35.120Z,997.61
2019-03-20T00:45:35.078Z,997.62
2019-03-20T00:46:35.033Z,997.60
2019-03-20T00:47:34.990Z,997.63
2019-03-20T00:48:34.947Z,997.61
2019-03-20T00:49:34.905Z,997.57
2019-03-20T00:50:34.860Z,997.60
2019-03-20T00:51:34.819Z,997.63
2019-03-20T00:52:34.778Z,997.62
2019-03-20T00:53:34.734Z,997.58
2019-03-20T00:54:34.688Z,997.63
2019-03-20T00:55:34.645Z,997.62
2019-03-20T00:56:34.603Z,997.60
2019-03-20T00:57:34.598Z,997.60
2019-03-20T00:58:34.515Z,997.59
2019-03-20T00:59:34.473Z,997.59
2019-03-20T01:00:34.431Z,997.55
2019-03-20T01:01:34.399Z,997.57
2019-03-20T01:02:34.343Z,997.57
2019-03-20T01:03:34.300Z,997.56
2019-03-20T01:04:34.257Z,997.59
2019-03-20T01:05:34.216Z,997.58
2019-03-20T01:06:34.171Z,997.58
2019-03-20T01:07:34.128Z,997.60
2019-03-20T01:08:34.087Z,997.60
2019-03-20T01:09:34.042Z,997.61
2019-03-20T01:10:33.998Z,997.61
2019-03-20T01:11:33.957Z,997.60
2019-03-20T01:12:33.914Z,997.62
2019-03-20T01:13:33.872Z,997.56
2019-03-20T01:14:33.830Z,997.57
2019-03-20T01:15:33.783Z,997.57
2019-03-20T01:16:33.742Z,997.56
2019-03-20T01:17:33.704Z,997.58
2019-03-20T01:18:33.655Z,997.58
2019-03-20T01:19:33.612Z,997.53
2019-03-20T01:20:33.605Z,997.56
2019-03-20T01:21:33.530Z,997.58
2019-03-20T01:22:33.482Z,997.55
2019-03-20T01:23:33.439Z,997.59
2019-03-20T01:24:33.399Z,997.58
2019-03-20T01:25:35.090Z,997.57
2019-03-20T01:26:33.312Z,997.60
2019-03-20T01:27:33.267Z,997.58
2019-03-20T01:28:33.225Z,997.61
2019-03-20T01:29:33.184Z,997.59
2019-03-20T01:30:33.138Z,997.62
2019-03-20T01:31:33.096Z,997.58
2019-03-20T01:32:33.052Z,997.59
2019-03-20T01:33:33.008Z,997.63
2019-03-20T01:34:32.965Z,997.61
2019-03-20T01:35:32.993Z,997.61
2019-03-20T01:36:32.880Z,997.62
2019-03-20T01:37:32.842Z,997.61
2019-03-20T01:38:32.793Z,997.59
2019-03-20T01:39:32.751Z,997.63
2019-03-20T01:40:32.711Z,997.65
2019-03-20T01:41:37.832Z,997.58
2019-03-20T01:42:32.620Z,997.59
2019-03-20T01:43:32.579Z,997.56
2019-03-20T01:44:32.537Z,997.54
2019-03-20T01:45:32.495Z,997.55
2019-03-20T01:46:32.449Z,997.57
2019-03-20T01:47:32.406Z,997.59
2019-03-20T01:48:32.363Z,997.59
2019-03-20T01:49:32.321Z,997.57
2019-03-20T01:50:32.276Z,997.59
2019-03-20T01:51:32.234Z,997.61
2019-03-20T01:52:32.189Z,997.58
2019-03-20T01:53:32.152Z,997.61
2019-03-20T01:54:32.105Z,997.64
2019-03-20T01:55:32.062Z,997.65
2019-03-20T01:56:32.018Z,997.64
2019-03-20T01:57:31.977Z,997.62
2019-03-20T01:58:31.931Z,997.62
2019-03-20T01:59:31.889Z,997.63
2019-03-20T02:00:31.850Z,997.62
2019-03-20T02:01:31.806Z,997.59
2019-03-20T02:02:31.765Z,997.59
2019-03-20T02:03:31.725Z,997.60
2019-03-20T02:04:31.679Z,997.58
2019-03-20T02:05:36.145Z,997.56
2019-03-20T02:06:31.586Z,997.56
2019-03-20T02:07:31.551Z,997.54
2019-03-20T02:08:31.504Z,997.54
2019-03-20T02:09:31.458Z,997.54
2019-03-20T02:10:31.415Z,997.58
2019-03-20T02:11:31.371Z,997.59
2019-03-20T02:12:31.330Z,997.60
2019-03-20T02:13:31.292Z,997.58
2019-03-20T02:14:31.248Z,997.60
2019-03-20T02:15:38.714Z,997.65
2019-03-20T02:16:31.160Z,997.63
2019-03-20T02:17:31.114Z,997.63
2019-03-20T02:18:31.067Z,997.61
2019-03-20T02:19:31.024Z,997.60
2019-03-20T02:20:30.987Z,997.58
2019-03-20T02:21:30.948Z,997.55
2019-03-20T02:22:30.903Z,997.56
2019-03-20T02:23:30.854Z,997.55
2019-03-20T02:24:30.812Z,997.54
2019-03-20T02:25:32.386Z,997.55
2019-03-20T02:26:30.729Z,997.54
2019-03-20T02:27:30.686Z,997.61
2019-03-20T02:28:30.641Z,997.61
2019-03-20T02:29:30.597Z,997.64
2019-03-20T02:30:30.551Z,997.63
2019-03-20T02:31:30.519Z,997.62
2019-03-20T02:32:30.467Z,997.63
2019-03-20T02:33:30.429Z,997.57
2019-03-20T02:34:30.383Z,997.61
2019-03-20T02:35:30.340Z,997.61
2019-03-20T02:36:30.296Z,997.64
2019-03-20T02:37:30.250Z,997.65
2019-03-20T02:38:30.210Z,997.63
2019-03-20T02:39:30.168Z,997.65
2019-03-20T02:40:30.122Z,997.62
2019-03-20T02:41:30.118Z,997.64
2019-03-20T02:42:30.031Z,997.58
2019-03-20T02:43:29.991Z,997.55
2019-03-20T02:44:29.947Z,997.53
2019-03-20T02:45:29.907Z,997.59
2019-03-20T02:46:29.863Z,997.59
2019-03-20T02:47:29.822Z,997.64
2019-03-20T02:48:29.779Z,997.66
2019-03-20T02:49:29.732Z,997.63
2019-03-20T02:50:29.687Z,997.68
2019-03-20T02:51:29.642Z,997.71
2019-03-20T02:52:29.615Z,997.71
2019-03-20T02:53:29.561Z,997.65
2019-03-20T02:54:29.527Z,997.65
2019-03-20T02:55:29.469Z,997.63
2019-03-20T02:56:29.429Z,997.63
2019-03-20T02:57:29.392Z,997.66
2019-03-20T02:58:29.375Z,997.64
2019-03-20T02:59:29.301Z,997.66
2019-03-20T03:00:29.257Z,997.64
2019-03-20T03:01:29.217Z,997.64
2019-03-20T03:02:29.166Z,997.66
2019-03-20T03:03:29.125Z,997.68
2019-03-20T03:04:29.079Z,997.71
2019-03-20T03:05:29.042Z,997.68
2019-03-20T03:06:28.998Z,997.66
2019-03-20T03:07:28.954Z,997.66
2019-03-20T03:08:28.912Z,997.71
2019-03-20T03:09:28.862Z,997.68
2019-03-20T03:10:28.821Z,997.64
2019-03-20T03:11:28.779Z,997.67
2019-03-20T03:12:28.747Z,997.65
2019-03-20T03:13:28.689Z,997.63
2019-03-20T03:14:28.646Z,997.62
2019-03-20T03:15:28.606Z,997.61
2019-03-20T03:16:28.559Z,997.61
2019-03-20T03:17:28.522Z,997.60
2019-03-20T03:18:28.477Z,997.63
2019-03-20T03:19:28.432Z,997.64
2019-03-20T03:20:28.396Z,997.67
2019-03-20T03:21:28.345Z,997.63
2019-03-20T03:22:28.338Z,997.63
2019-03-20T03:23:28.259Z,997.55
2019-03-20T03:24:28.213Z,997.59
2019-03-20T03:25:28.177Z,997.55
2019-03-20T03:26:28.132Z,997.51
2019-03-20T03:27:28.084Z,997.52
2019-03-20T03:28:28.039Z,997.54
2019-03-20T03:29:28.002Z,997.55
2019-03-20T03:30:28.122Z,997.50
2019-03-20T03:43:49.386Z,997.54
2019-03-20T03:44:49.312Z,997.50
2019-03-20T03:45:49.269Z,997.51
2019-03-20T03:46:49.215Z,997.51
2019-03-20T03:47:49.172Z,997.49
2019-03-20T03:48:49.130Z,997.47
2019-03-20T03:49:49.085Z,997.45
2019-03-20T03:50:49.042Z,997.47
2019-03-20T03:51:49.024Z,997.46
2019-03-20T03:52:48.952Z,997.45
2019-03-20T03:53:48.904Z,997.45
2019-03-20T03:54:48.856Z,997.46
2019-03-20T03:55:48.815Z,997.54
2019-03-20T03:56:48.797Z,997.53
2019-03-20T03:57:48.726Z,997.58
2019-03-20T03:58:48.684Z,997.61
2019-03-20T03:59:48.636Z,997.59
2019-03-20T04:00:48.596Z,997.60
2019-03-20T04:01:48.549Z,997.61
2019-03-20T04:02:48.544Z,997.66
2019-03-20T04:03:48.456Z,997.66
2019-03-20T04:04:48.417Z,997.63
2019-03-20T04:05:48.380Z,997.66
2019-03-20T04:06:48.332Z,997.67
2019-03-20T04:07:48.287Z,997.69
2019-03-20T04:08:48.241Z,997.72
2019-03-20T04:09:48.199Z,997.75
2019-03-20T04:10:48.156Z,997.74
2019-03-20T04:11:48.107Z,997.79
2019-03-20T04:12:48.067Z,997.82
2019-03-20T04:13:48.029Z,997.81
2019-03-20T04:14:47.975Z,997.88
2019-03-20T04:15:47.958Z,997.87
2019-03-20T04:16:47.894Z,997.91
2019-03-20T04:17:47.850Z,997.95
2019-03-20T04:18:47.800Z,997.91
2019-03-20T04:19:47.764Z,997.87
2019-03-20T04:20:47.718Z,997.92
2019-03-20T04:21:47.681Z,997.84
2019-03-20T04:22:47.718Z,997.88
2019-03-20T04:23:47.582Z,997.87
2019-03-20T04:24:47.542Z,997.91
2019-03-20T04:25:47.500Z,997.89
2019-03-20T04:26:47.452Z,997.93
2019-03-20T04:27:47.447Z,997.94
2019-03-20T04:28:47.370Z,997.94
2019-03-20T04:29:47.331Z,997.95
2019-03-20T04:30:47.285Z,998.00
2019-03-20T04:31:47.235Z,997.96
2019-03-20T04:32:47.196Z,997.97
2019-03-20T04:33:47.152Z,998.00
2019-03-20T04:34:47.112Z,998.01
2019-03-20T04:35:47.060Z,998.00
2019-03-20T04:36:48.212Z,998.01
2019-03-20T04:37:46.977Z,998.03
2019-03-20T04:38:46.931Z,998.06
2019-03-20T04:39:46.893Z,998.02
2019-03-20T04:40:46.848Z,998.07
2019-03-20T04:41:46.875Z,998.06
2019-03-20T04:42:46.765Z,998.06
2019-03-20T04:43:46.714Z,998.06
2019-03-20T04:44:46.673Z,998.03
2019-03-20T04:45:46.630Z,998.03
2019-03-20T04:46:46.586Z,998.05
2019-03-20T04:47:46.551Z,998.06
2019-03-20T04:48:46.502Z,998.03
2019-03-20T04:49:46.456Z,998.05
2019-03-20T04:50:46.411Z,998.10
2019-03-20T04:51:46.372Z,998.10
2019-03-20T04:52:46.331Z,998.07
2019-03-20T04:53:46.284Z,998.08
2019-03-20T04:54:46.279Z,998.07
2019-03-20T04:55:46.199Z,998.08
2019-03-20T04:56:46.160Z,998.10
2019-03-20T04:57:46.213Z,998.10
2019-03-20T04:58:46.066Z,998.16
2019-03-20T04:59:46.030Z,998.16
2019-03-20T05:00:45.988Z,998.13
2019-03-20T05:01:45.942Z,998.09
2019-03-20T05:02:45.900Z,998.08
2019-03-20T05:03:45.853Z,998.06
2019-03-20T05:04:45.808Z,998.07
2019-03-20T05:05:45.769Z,998.06
2019-03-20T05:06:45.730Z,998.08
2019-03-20T05:07:45.682Z,998.08
2019-03-20T05:08:45.636Z,998.11
2019-03-20T05:09:45.596Z,998.13
2019-03-20T05:10:45.549Z,998.12
2019-03-20T05:11:45.513Z,998.15
2019-03-20T05:12:45.467Z,998.16
2019-03-20T05:13:45.424Z,998.16
2019-03-20T05:14:45.382Z,998.18
2019-03-20T05:15:45.339Z,998.15
2019-03-20T05:16:45.296Z,998.13
2019-03-20T05:17:45.248Z,998.13
2019-03-20T05:18:45.204Z,998.16
2019-03-20T05:19:45.166Z,998.19
2019-03-20T05:20:45.126Z,998.13
2019-03-20T05:21:45.077Z,998.09
2019-03-20T05:22:45.030Z,998.14
2019-03-20T05:23:45.017Z,998.07
2019-03-20T05:24:44.948Z,998.07
2019-03-20T05:25:44.906Z,998.06
2019-03-20T05:26:44.869Z,998.03
2019-03-20T05:27:44.819Z,998.01
2019-03-20T05:28:44.777Z,998.02
2019-03-20T05:29:44.732Z,998.00
2019-03-20T05:30:44.688Z,998.03
2019-03-20T05:31:44.649Z,998.03
2019-03-20T05:32:44.604Z,998.04
2019-03-20T05:33:44.561Z,998.04
2019-03-20T05:34:44.520Z,998.03
2019-03-20T05:35:44.470Z,998.05
2019-03-20T05:36:44.429Z,998.11
2019-03-20T05:37:44.388Z,998.12
2019-03-20T05:38:44.348Z,998.16
2019-03-20T05:39:44.299Z,998.15
2019-03-20T05:40:44.258Z,998.17
2019-03-20T05:41:44.213Z,998.14
2019-03-20T05:42:44.171Z,998.12
2019-03-20T05:43:44.131Z,998.12
2019-03-20T05:44:44.086Z,998.17
2019-03-20T05:45:44.046Z,998.18
2019-03-20T05:46:44.005Z,998.21
2019-03-20T05:47:43.954Z,998.20
2019-03-20T05:48:43.916Z,998.26
2019-03-20T05:49:43.869Z,998.25
2019-03-20T05:50:43.824Z,998.27
2019-03-20T05:51:43.785Z,998.26
2019-03-20T05:52:43.741Z,998.25
2019-03-20T05:53:43.695Z,998.26
2019-03-20T05:54:43.653Z,998.29
2019-03-20T05:55:43.613Z,998.29
2019-03-20T05:56:43.570Z,998.30
2019-03-20T05:57:43.529Z,998.36
2019-03-20T05:58:43.484Z,998.33
2019-03-20T05:59:43.435Z,998.39
2019-03-20T06:00:43.396Z,998.36
2019-03-20T06:01:43.350Z,998.39
2019-03-20T06:02:43.310Z,998.40
2019-03-20T06:03:43.267Z,998.41
2019-03-20T06:04:43.224Z,998.40
2019-03-20T06:05:43.180Z,998.43
2019-03-20T06:06:43.139Z,998.44
2019-03-20T06:07:43.090Z,998.41
2019-03-20T06:08:43.048Z,998.46
2019-03-20T06:09:43.006Z,998.47
2019-03-20T06:10:42.967Z,998.46
2019-03-20T06:11:42.918Z,998.50
2019-03-20T06:12:42.886Z,998.42
2019-03-20T06:13:42.835Z,998.47
2019-03-20T06:14:42.787Z,998.47
2019-03-20T06:15:42.754Z,998.46
2019-03-20T06:16:42.707Z,998.45
2019-03-20T06:17:42.661Z,998.45
2019-03-20T06:18:42.622Z,998.43
2019-03-20T06:19:51.232Z,998.48
2019-03-20T06:21:46.971Z,998.51
2019-03-20T06:22:46.908Z,998.48
2019-03-20T06:23:46.859Z,998.44
2019-03-20T06:24:46.816Z,998.46
2019-03-20T06:25:46.778Z,998.47
2019-03-20T06:26:46.734Z,998.46
2019-03-20T06:27:46.688Z,998.44
2019-03-20T06:28:46.644Z,998.45
2019-03-20T06:29:46.604Z,998.49
2019-03-20T06:30:46.563Z,998.51
2019-03-20T06:31:46.537Z,998.55
2019-03-20T06:32:46.478Z,998.60
2019-03-20T06:33:46.429Z,998.55
2019-03-20T06:34:48.775Z,998.56
2019-03-20T06:35:46.353Z,998.59
2019-03-20T06:36:46.301Z,998.63
2019-03-20T06:37:46.265Z,998.60
2019-03-20T06:38:46.218Z,998.64
2019-03-20T06:39:46.176Z,998.65
2019-03-20T06:40:46.131Z,998.61
2019-03-20T06:41:46.087Z,998.67
2019-03-20T06:42:46.056Z,998.67
2019-03-20T06:43:46.006Z,998.69
2019-03-20T06:44:45.960Z,998.69
2019-03-20T06:45:45.916Z,998.73
2019-03-20T06:46:45.872Z,998.76
2019-03-20T06:47:45.849Z,998.79
2019-03-20T06:48:45.787Z,998.78
2019-03-20T06:49:45.747Z,998.76
2019-03-20T06:50:45.707Z,998.84
2019-03-20T06:51:45.663Z,998.86
2019-03-20T06:52:45.622Z,998.85
2019-03-20T06:53:45.576Z,998.88
2019-03-20T06:54:45.532Z,998.88
2019-03-20T06:55:45.487Z,998.90
2019-03-20T06:56:45.446Z,998.89
2019-03-20T06:57:45.407Z,998.90
2019-03-20T06:58:45.367Z,998.91
2019-03-20T06:59:45.317Z,998.92
2019-03-20T07:00:45.281Z,998.92
2019-03-20T07:01:45.237Z,998.94
2019-03-20T07:02:45.200Z,998.93
2019-03-20T07:03:45.154Z,998.91
2019-03-20T07:04:45.109Z,998.92
2019-03-20T07:05:45.065Z,998.91
2019-03-20T07:06:45.021Z,998.88
2019-03-20T07:07:44.979Z,998.89
2019-03-20T07:08:44.939Z,998.91
2019-03-20T07:09:44.898Z,998.93
2019-03-20T07:10:44.858Z,998.95
2019-03-20T07:11:44.815Z,998.99
2019-03-20T07:12:44.777Z,999.01
2019-03-20T07:13:44.737Z,998.97
2019-03-20T07:14:44.685Z,998.94
2019-03-20T07:15:44.648Z,999.04
2019-03-20T07:16:44.605Z,999.00
2019-03-20T07:17:44.559Z,999.00
2019-03-20T07:18:44.514Z,999.02
2019-03-20T07:19:44.476Z,999.04
2019-03-20T07:20:44.434Z,999.06
2019-03-20T07:21:44.396Z,999.05
2019-03-20T07:22:44.354Z,999.05
2019-03-20T07:23:44.323Z,999.05
2019-03-20T07:24:44.268Z,999.01
2019-03-20T07:25:44.230Z,999.03
2019-03-20T07:26:44.180Z,999.06
2019-03-20T07:27:44.138Z,999.04
2019-03-20T07:28:44.098Z,999.01
2019-03-20T07:29:44.058Z,999.00
2019-03-20T07:30:44.019Z,999.06
2019-03-20T07:31:43.971Z,999.03
2019-03-20T07:32:43.935Z,999.05
2019-03-20T07:33:43.892Z,999.07
2019-03-20T07:34:43.853Z,999.06
2019-03-20T07:35:43.811Z,999.08
2019-03-20T07:36:43.765Z,999.15
2019-03-20T07:37:43.736Z,999.22
2019-03-20T07:38:43.682Z,999.21
2019-03-20T07:39:43.638Z,999.14
2019-03-20T07:40:43.600Z,999.20
2019-03-20T07:41:43.559Z,999.20
2019-03-20T07:42:43.520Z,999.19
2019-03-20T07:43:43.482Z,999.21
2019-03-20T07:44:43.436Z,999.25
2019-03-20T07:45:43.396Z,999.21
2019-03-20T07:46:43.350Z,999.26
2019-03-20T07:47:43.313Z,999.25
2019-03-20T07:48:43.271Z,999.26
2019-03-20T07:49:43.228Z,999.29
2019-03-20T07:50:43.186Z,999.26
2019-03-20T07:51:43.143Z,999.28
2019-03-20T07:52:43.105Z,999.26
2019-03-20T07:53:43.067Z,999.26
2019-03-20T07:54:43.027Z,999.31
2019-03-20T07:55:42.985Z,999.31
2019-03-20T07:56:42.942Z,999.29
2019-03-20T07:57:42.900Z,999.39
2019-03-20T07:58:42.857Z,999.35
2019-03-20T07:59:42.816Z,999.39
2019-03-20T08:00:42.776Z,999.39
2019-03-20T08:01:42.738Z,999.43
2019-03-20T08:02:42.699Z,999.43
2019-03-20T08:03:42.651Z,999.39
2019-03-20T08:04:42.613Z,999.40
2019-03-20T08:05:42.573Z,999.37
2019-03-20T08:06:42.535Z,999.37
2019-03-20T08:07:42.497Z,999.43
2019-03-20T08:08:42.452Z,999.38
2019-03-20T08:09:42.409Z,999.40
2019-03-20T08:10:42.367Z,999.42
2019-03-20T08:11:42.326Z,999.46
2019-03-20T08:12:42.287Z,999.47
2019-03-20T08:13:42.248Z,999.46
2019-03-20T08:14:42.215Z,999.48
2019-03-20T08:15:42.168Z,999.48
2019-03-20T08:16:42.126Z,999.49
2019-03-20T08:17:42.083Z,999.50
2019-03-20T08:18:42.042Z,999.50
2019-03-20T08:19:42.011Z,999.50
2019-03-20T08:20:41.968Z,999.50
2019-03-20T08:21:41.921Z,999.54
2019-03-20T08:22:41.879Z,999.57
2019-03-20T08:23:41.842Z,999.57
2019-03-20T08:24:41.799Z,999.60
2019-03-20T08:25:41.763Z,999.57
2019-03-20T08:26:41.723Z,999.60
2019-03-20T08:27:41.683Z,999.59
2019-03-20T08:28:41.640Z,999.65
2019-03-20T08:29:41.598Z,999.60
2019-03-20T08:30:41.568Z,999.62
2019-03-20T08:31:41.517Z,999.63
2019-03-20T08:32:41.477Z,999.63
2019-03-20T08:33:41.444Z,999.66
2019-03-20T08:34:41.401Z,999.68
2019-03-20T08:35:41.355Z,999.68
2019-03-20T08:36:41.316Z,999.70
2019-03-20T08:37:41.278Z,999.72
2019-03-20T08:38:41.242Z,999.68
2019-03-20T08:39:41.200Z,999.71
2019-03-20T08:40:41.163Z,999.72
2019-03-20T08:41:41.115Z,999.69
2019-03-20T08:42:41.075Z,999.72
2019-03-20T08:43:41.041Z,999.66
2019-03-20T08:44:41.000Z,999.75
2019-03-20T08:45:40.959Z,999.69
2019-03-20T08:46:40.923Z,999.74
2019-03-20T08:47:40.905Z,999.76
2019-03-20T08:48:40.837Z,999.76
2019-03-20T08:49:40.820Z,999.74
2019-03-20T08:50:40.754Z,999.80
2019-03-20T08:51:40.723Z,999.79
2019-03-20T08:52:40.676Z,999.81
2019-03-20T08:53:40.635Z,999.79
2019-03-20T08:54:40.594Z,999.75
2019-03-20T08:55:40.555Z,999.78
2019-03-20T08:56:40.516Z,999.79
2019-03-20T08:57:40.479Z,999.82
2019-03-20T08:58:40.441Z,999.84
2019-03-20T08:59:40.404Z,999.87
2019-03-20T09:00:40.360Z,999.88
2019-03-20T09:01:40.318Z,999.81
2019-03-20T09:02:40.291Z,999.85
2019-03-20T09:03:40.243Z,999.87
2019-03-20T09:04:40.198Z,999.87
2019-03-20T09:05:40.161Z,999.90
2019-03-20T09:06:40.122Z,999.87
2019-03-20T09:07:47.090Z,999.86
2019-03-20T09:08:40.040Z,999.87
2019-03-20T09:09:40.004Z,999.83
2019-03-20T09:10:39.966Z,999.88
2019-03-20T09:11:39.930Z,999.88
2019-03-20T09:12:39.883Z,999.88
2019-03-20T09:13:39.855Z,999.90
2019-03-20T09:14:39.803Z,999.92
2019-03-20T09:15:39.759Z,999.94
2019-03-20T09:16:39.722Z,999.92
2019-03-20T09:17:39.685Z,999.91
2019-03-20T09:18:39.656Z,999.92
2019-03-20T09:19:39.626Z,999.92
2019-03-20T09:20:39.567Z,999.98
2019-03-20T09:21:39.525Z,999.91
2019-03-20T09:22:39.487Z,999.95
2019-03-20T09:23:40.844Z,999.98
2019-03-20T09:24:39.411Z,999.98
2019-03-20T09:25:39.368Z,999.97
2019-03-20T09:26:39.330Z,999.99
2019-03-20T09:27:39.288Z,1000.02
2019-03-20T09:28:39.253Z,1000.03
2019-03-20T09:29:41.129Z,1000.07
2019-03-20T09:30:39.176Z,1000.06
2019-03-20T09:31:39.136Z,1000.04
2019-03-20T09:32:39.095Z,1000.05
2019-03-20T09:33:39.054Z,1000.08
2019-03-20T09:34:39.013Z,1000.07
2019-03-20T09:35:38.973Z,1000.07
2019-03-20T09:36:43.201Z,1000.04
2019-03-20T09:37:38.901Z,1000.06
2019-03-20T09:38:43.327Z,1000.04
2019-03-20T09:39:38.818Z,1000.03
2019-03-20T09:40:38.782Z,1000.05
2019-03-20T09:41:38.743Z,1000.06
2019-03-20T09:42:38.705Z,1000.06
2019-03-20T09:43:38.668Z,1000.10
2019-03-20T09:57:29.206Z,1000.22
2019-03-20T09:58:29.132Z,1000.14
2019-03-20T09:59:29.095Z,1000.17
2019-03-20T10:00:29.051Z,1000.18
2019-03-20T10:01:29.006Z,1000.16
2019-03-20T10:02:28.961Z,1000.16
2019-03-20T10:03:28.920Z,1000.17
2019-03-20T10:04:28.882Z,1000.15
2019-03-20T10:05:28.842Z,1000.15
2019-03-20T10:06:30.225Z,1000.15
2019-03-20T10:07:28.765Z,1000.13
2019-03-20T10:08:28.719Z,1000.15
2019-03-20T10:09:28.679Z,1000.14
2019-03-20T10:10:28.636Z,1000.18
2019-03-20T10:11:28.637Z,1000.14
2019-03-20T10:12:28.558Z,1000.12
2019-03-20T10:13:28.522Z,1000.11
2019-03-20T10:14:28.484Z,1000.13
2019-03-20T10:15:28.446Z,1000.09
2019-03-20T10:16:28.401Z,1000.10
2019-03-20T10:17:28.364Z,1000.05
2019-03-20T10:18:28.326Z,1000.08
2019-03-20T10:19:28.287Z,1000.13
2019-03-20T10:20:28.247Z,1000.10
2019-03-20T10:21:28.204Z,1000.13
2019-03-20T10:22:28.165Z,1000.13
2019-03-20T10:23:28.128Z,1000.17
2019-03-20T10:24:28.089Z,1000.12
2019-03-20T10:25:28.051Z,1000.14
2019-03-20T10:26:28.020Z,1000.16
2019-03-20T10:27:27.975Z,1000.12
2019-03-20T10:28:27.935Z,1000.14
2019-03-20T10:29:27.897Z,1000.13
2019-03-20T10:30:27.858Z,1000.14
2019-03-20T10:31:27.824Z,1000.15
2019-03-20T10:32:27.781Z,1000.13
2019-03-20T10:33:27.741Z,1000.13
2019-03-20T10:34:27.700Z,1000.15
2019-03-20T10:35:27.663Z,1000.15
2019-03-20T10:36:27.627Z,1000.13
2019-03-20T10:37:27.592Z,1000.11
2019-03-20T10:38:27.553Z,1000.15
2019-03-20T10:39:27.515Z,1000.18
2019-03-20T10:40:27.475Z,1000.19
2019-03-20T10:41:27.434Z,1000.17
2019-03-20T10:42:27.396Z,1000.13
2019-03-20T10:43:27.357Z,1000.17
2019-03-20T10:44:27.321Z,1000.16
2019-03-20T10:45:27.285Z,1000.12
2019-03-20T10:46:27.249Z,1000.14
2019-03-20T10:47:27.205Z,1000.12
2019-03-20T10:48:27.168Z,1000.14
2019-03-20T10:49:27.132Z,1000.15
2019-03-20T10:50:27.097Z,1000.12
2019-03-20T10:51:27.058Z,1000.15
2019-03-20T10:52:27.028Z,1000.12
2019-03-20T10:53:26.977Z,1000.10
2019-03-20T10:54:26.939Z,1000.08
2019-03-20T10:55:26.923Z,1000.12
2019-03-20T10:56:26.876Z,1000.10
2019-03-20T10:57:26.830Z,1000.14
2019-03-20T10:58:26.799Z,1000.12
2019-03-20T10:59:26.792Z,1000.11
2019-03-20T11:00:26.718Z,1000.13
2019-03-20T11:01:26.678Z,1000.14
2019-03-20T11:02:26.637Z,1000.15
2019-03-20T11:03:26.608Z,1000.16
2019-03-20T11:04:26.580Z,1000.15
2019-03-20T11:05:26.526Z,1000.17
2019-03-20T11:06:26.490Z,1000.15
2019-03-20T11:07:26.450Z,1000.18
2019-03-20T11:08:26.415Z,1000.20
2019-03-20T11:09:26.379Z,1000.22
2019-03-20T11:10:26.342Z,1000.22
2019-03-20T11:11:27.341Z,1000.23
2019-03-20T11:12:26.266Z,1000.21
2019-03-20T11:13:26.229Z,1000.20
2019-03-20T11:14:26.199Z,1000.18
2019-03-20T11:15:26.150Z,1000.21
2019-03-20T11:16:26.119Z,1000.15
2019-03-20T11:17:26.082Z,1000.18
2019-03-20T11:18:26.048Z,1000.23
2019-03-20T11:19:26.003Z,1000.21
2019-03-20T11:20:25.969Z,1000.22
2019-03-20T11:21:25.934Z,1000.23
2019-03-20T11:22:25.893Z,1000.23
2019-03-20T11:23:25.856Z,1000.16
2019-03-20T11:24:25.817Z,1000.20
2019-03-20T11:25:25.784Z,1000.15
2019-03-20T11:26:25.740Z,1000.15
2019-03-20T11:27:27.566Z,1000.19
2019-03-20T11:28:25.666Z,1000.16
2019-03-20T11:29:25.629Z,1000.17
2019-03-20T11:30:25.594Z,1000.16
2019-03-20T11:31:25.556Z,1000.18
2019-03-20T11:32:25.518Z,1000.13
2019-03-20T11:33:25.480Z,1000.16
2019-03-20T11:34:25.450Z,1000.17
2019-03-20T11:35:25.407Z,1000.15
2019-03-20T11:36:25.371Z,1000.09
2019-03-20T11:37:25.329Z,1000.08
2019-03-20T11:38:25.289Z,1000.10
2019-03-20T11:39:29.548Z,1000.08
2019-03-20T11:40:25.218Z,1000.10
2019-03-20T11:41:25.181Z,1000.12
2019-03-20T11:42:25.146Z,1000.11
2019-03-20T11:43:25.110Z,1000.11
2019-03-20T11:44:25.069Z,1000.12
2019-03-20T11:45:25.030Z,1000.13
2019-03-20T11:46:24.992Z,1000.11
2019-03-20T11:47:24.954Z,1000.09
2019-03-20T11:48:24.919Z,1000.09
2019-03-20T11:49:24.883Z,1000.10
2019-03-20T11:50:24.847Z,1000.07
2019-03-20T11:51:24.805Z,1000.07
2019-03-20T11:52:24.770Z,1000.07
2019-03-20T11:53:24.735Z,1000.07
2019-03-20T11:54:24.700Z,1000.07
2019-03-20T11:55:24.707Z,1000.06
2019-03-20T11:56:24.624Z,1000.03
2019-03-20T11:57:24.585Z,1000.10
2019-03-20T11:58:24.547Z,1000.06
2019-03-20T11:59:24.513Z,1000.06
2019-03-20T12:00:24.474Z,1000.02
2019-03-20T12:01:24.440Z,1000.02
2019-03-20T12:02:28.506Z,1000.06
2019-03-20T12:03:24.367Z,1000.02
2019-03-20T12:04:24.328Z,1000.02
2019-03-20T12:05:24.292Z,1000.00
2019-03-20T12:06:24.252Z,1000.02
2019-03-20T12:07:24.221Z,1000.03
2019-03-20T12:08:24.181Z,1000.07
2019-03-20T12:09:24.142Z,1000.07
2019-03-20T12:10:24.105Z,1000.09
2019-03-20T12:11:24.065Z,1000.10
2019-03-20T12:12:24.031Z,1000.10
2019-03-20T12:13:24.127Z,1000.10
2019-03-20T12:14:23.962Z,1000.14
2019-03-20T12:15:23.926Z,1000.08
2019-03-20T12:16:23.886Z,1000.09
2019-03-20T12:17:23.853Z,1000.06
2019-03-20T12:18:23.808Z,1000.07
2019-03-20T12:19:23.772Z,1000.02
2019-03-20T12:20:32.622Z,1000.00
2019-03-20T12:22:37.373Z,1000.03
2019-03-20T12:23:28.089Z,1000.01
2019-03-20T12:24:28.071Z,1000.01
2019-03-20T12:25:28.024Z,1000.04
2019-03-20T12:26:27.987Z,1000.03
2019-03-20T12:27:27.954Z,1000.01
2019-03-20T12:28:27.921Z,1000.00
2019-03-20T12:29:27.870Z,999.99
2019-03-20T12:30:27.833Z,1000.00
2019-03-20T12:31:27.965Z,999.97
2019-03-20T12:32:27.757Z,999.95
2019-03-20T12:33:27.726Z,999.98
2019-03-20T12:34:27.691Z,1000.01
2019-03-20T12:35:27.649Z,999.97
2019-03-20T12:36:27.614Z,999.95
2019-03-20T12:37:27.573Z,999.90
2019-03-20T12:38:27.534Z,999.91
2019-03-20T12:39:27.505Z,999.89
2019-03-20T12:40:27.468Z,999.91
2019-03-20T12:41:27.424Z,999.92
2019-03-20T12:42:27.407Z,999.93
2019-03-20T12:43:27.353Z,999.93
2019-03-20T12:44:27.315Z,999.93
2019-03-20T12:45:27.282Z,999.92
2019-03-20T12:46:40.693Z,999.92
2019-03-20T12:47:27.209Z,999.90
2019-03-20T12:48:27.169Z,999.91
2019-03-20T12:49:27.130Z,999.91
2019-03-20T12:50:27.093Z,999.92
2019-03-20T12:51:27.056Z,999.95